sensor_id;sensor_type;location;lat;lon;timestamp;temperature;humidity
50162;DHT22;36061;48.116;11.612;2023-04-01T00:00:48;8.10;99.90
50162;DHT22;36061;48.116;11.612;2023-04-01T00:03:16;8.00;99.90
50162;DHT22;36061;48.116;11.612;2023-04-01T00:05:44;8.00;99.90
50162;DHT22;36061;48.116;11.612;2023-04-01T00:08:12;8.00;99.90
50162;DHT22;36061;48.116;11.612;2023-04-01T00:10:39;8.00;99.90
50162;DHT22;36061;48.116;11.612;2023-04-01T00:13:08;8.00;99.90
50162;DHT22;36061;48.116;11.612;2023-04-01T00:15:35;7.90;99.90
50162;DHT22;36061;48.116;11.612;2023-04-01T00:18:03;7.90;99.90
50162;DHT22;36061;48.116;11.612;2023-04-01T00:20:32;7.90;99.90
50162;DHT22;36061;48.116;11.612;2023-04-01T00:22:59;7.90;99.90
50162;DHT22;36061;48.116;11.612;2023-04-01T00:25:26;7.90;99.90
50162;DHT22;36061;48.116;11.612;2023-04-01T00:27:54;8.00;99.90
50162;DHT22;36061;48.116;11.612;2023-04-01T00:30:23;8.00;99.90
50162;DHT22;36061;48.116;11.612;2023-04-01T00:32:51;7.90;99.90
50162;DHT22;36061;48.116;11.612;2023-04-01T00:35:19;7.90;99.90
50162;DHT22;36061;48.116;11.612;2023-04-01T00:37:46;7.90;99.90
50162;DHT22;36061;48.116;11.612;2023-04-01T00:40:24;7.80;99.90
50162;DHT22;36061;48.116;11.612;2023-04-01T00:42:52;7.80;99.90
50162;DHT22;36061;48.116;11.612;2023-04-01T00:45:33;7.80;99.90
50162;DHT22;36061;48.116;11.612;2023-04-01T00:48:05;7.80;99.90
50162;DHT22;36061;48.116;11.612;2023-04-01T00:50:35;7.70;99.90
50162;DHT22;36061;48.116;11.612;2023-04-01T00:53:03;7.70;99.90
50162;DHT22;36061;48.116;11.612;2023-04-01T00:55:33;7.70;99.90
50162;DHT22;36061;48.116;11.612;2023-04-01T00:58:02;7.70;99.90
50162;DHT22;36061;48.116;11.612;2023-04-01T01:00:32;7.70;99.90
50162;DHT22;36061;48.116;11.612;2023-04-01T01:03:00;7.70;99.90
50162;DHT22;36061;48.116;11.612;2023-04-01T01:05:37;7.70;99.90
50162;DHT22;36061;48.116;11.612;2023-04-01T01:08:14;7.70;99.90
50162;DHT22;36061;48.116;11.612;2023-04-01T01:10:49;7.80;99.90
50162;DHT22;36061;48.116;11.612;2023-04-01T01:13:20;7.80;99.90
50162;DHT22;36061;48.116;11.612;2023-04-01T01:15:57;7.80;99.90
50162;DHT22;36061;48.116;11.612;2023-04-01T01:18:32;7.90;99.90
50162;DHT22;36061;48.116;11.612;2023-04-01T01:21:24;7.80;99.90
50162;DHT22;36061;48.116;11.612;2023-04-01T01:24:25;7.90;99.90
50162;DHT22;36061;48.116;11.612;2023-04-01T01:26:59;7.90;99.90
50162;DHT22;36061;48.116;11.612;2023-04-01T01:32:41;7.90;99.90
50162;DHT22;36061;48.116;11.612;2023-04-01T01:35:16;8.00;99.90
50162;DHT22;36061;48.116;11.612;2023-04-01T01:37:47;7.90;99.90
50162;DHT22;36061;48.116;11.612;2023-04-01T01:40:16;7.90;99.90
50162;DHT22;36061;48.116;11.612;2023-04-01T01:42:48;8.00;99.90
50162;DHT22;36061;48.116;11.612;2023-04-01T01:45:19;7.90;99.90
50162;DHT22;36061;48.116;11.612;2023-04-01T01:47:47;7.90;99.90
50162;DHT22;36061;48.116;11.612;2023-04-01T01:50:17;7.90;99.90
50162;DHT22;36061;48.116;11.612;2023-04-01T01:52:46;7.80;99.90
50162;DHT22;36061;48.116;11.612;2023-04-01T01:55:27;7.80;99.90
50162;DHT22;36061;48.116;11.612;2023-04-01T01:57:56;7.80;99.90
50162;DHT22;36061;48.116;11.612;2023-04-01T02:00:25;7.90;99.90
50162;DHT22;36061;48.116;11.612;2023-04-01T02:02:53;7.90;99.90
50162;DHT22;36061;48.116;11.612;2023-04-01T02:05:25;7.90;99.90
50162;DHT22;36061;48.116;11.612;2023-04-01T02:08:03;7.90;99.90
50162;DHT22;36061;48.116;11.612;2023-04-01T02:10:36;7.90;99.90
50162;DHT22;36061;48.116;11.612;2023-04-01T02:13:09;7.90;99.90
50162;DHT22;36061;48.116;11.612;2023-04-01T02:15:42;7.90;99.90
50162;DHT22;36061;48.116;11.612;2023-04-01T02:18:13;7.90;99.90
50162;DHT22;36061;48.116;11.612;2023-04-01T02:20:43;8.00;99.90
50162;DHT22;36061;48.116;11.612;2023-04-01T02:23:12;8.00;99.90
50162;DHT22;36061;48.116;11.612;2023-04-01T02:25:41;7.90;99.90
50162;DHT22;36061;48.116;11.612;2023-04-01T02:28:10;7.90;99.90
50162;DHT22;36061;48.116;11.612;2023-04-01T02:30:42;7.90;99.90
50162;DHT22;36061;48.116;11.612;2023-04-01T02:33:10;7.90;99.90
50162;DHT22;36061;48.116;11.612;2023-04-01T02:35:37;7.90;99.90
50162;DHT22;36061;48.116;11.612;2023-04-01T02:38:08;7.90;99.90
50162;DHT22;36061;48.116;11.612;2023-04-01T02:40:44;7.90;99.90
50162;DHT22;36061;48.116;11.612;2023-04-01T02:43:12;7.90;99.90
50162;DHT22;36061;48.116;11.612;2023-04-01T02:45:39;7.90;99.90
50162;DHT22;36061;48.116;11.612;2023-04-01T02:48:06;7.90;99.90
50162;DHT22;36061;48.116;11.612;2023-04-01T02:50:34;7.90;99.90
50162;DHT22;36061;48.116;11.612;2023-04-01T02:53:01;7.90;99.90
50162;DHT22;36061;48.116;11.612;2023-04-01T02:55:33;7.90;99.90
50162;DHT22;36061;48.116;11.612;2023-04-01T02:58:01;7.90;99.90
50162;DHT22;36061;48.116;11.612;2023-04-01T03:00:29;7.90;99.90
50162;DHT22;36061;48.116;11.612;2023-04-01T03:02:56;7.90;99.90
50162;DHT22;36061;48.116;11.612;2023-04-01T03:05:24;7.90;99.90
50162;DHT22;36061;48.116;11.612;2023-04-01T03:07:51;7.90;99.90
50162;DHT22;36061;48.116;11.612;2023-04-01T03:10:19;7.90;99.90
50162;DHT22;36061;48.116;11.612;2023-04-01T03:12:48;7.80;99.90
50162;DHT22;36061;48.116;11.612;2023-04-01T03:15:16;7.90;99.90
50162;DHT22;36061;48.116;11.612;2023-04-01T03:17:43;7.80;99.90
50162;DHT22;36061;48.116;11.612;2023-04-01T03:20:13;7.90;99.90
50162;DHT22;36061;48.116;11.612;2023-04-01T03:22:40;7.80;99.90
50162;DHT22;36061;48.116;11.612;2023-04-01T03:25:08;7.80;99.90
50162;DHT22;36061;48.116;11.612;2023-04-01T03:27:37;7.80;99.90
50162;DHT22;36061;48.116;11.612;2023-04-01T03:30:07;7.80;99.90
50162;DHT22;36061;48.116;11.612;2023-04-01T03:32:42;7.70;99.90
50162;DHT22;36061;48.116;11.612;2023-04-01T03:35:10;7.70;99.90
50162;DHT22;36061;48.116;11.612;2023-04-01T03:37:37;7.70;99.90
50162;DHT22;36061;48.116;11.612;2023-04-01T03:40:06;7.60;99.90
50162;DHT22;36061;48.116;11.612;2023-04-01T03:42:33;7.60;99.90
50162;DHT22;36061;48.116;11.612;2023-04-01T03:45:01;7.70;99.90
50162;DHT22;36061;48.116;11.612;2023-04-01T03:47:30;7.70;99.90
50162;DHT22;36061;48.116;11.612;2023-04-01T03:49:57;7.60;99.90
50162;DHT22;36061;48.116;11.612;2023-04-01T03:52:25;7.60;99.90
50162;DHT22;36061;48.116;11.612;2023-04-01T03:54:52;7.60;99.90
50162;DHT22;36061;48.116;11.612;2023-04-01T03:57:20;7.50;99.90
50162;DHT22;36061;48.116;11.612;2023-04-01T03:59:47;7.60;99.90
50162;DHT22;36061;48.116;11.612;2023-04-01T04:02:14;7.50;99.90
50162;DHT22;36061;48.116;11.612;2023-04-01T04:04:43;7.50;99.90
50162;DHT22;36061;48.116;11.612;2023-04-01T04:07:10;7.50;99.90
50162;DHT22;36061;48.116;11.612;2023-04-01T04:09:58;7.50;99.90
50162;DHT22;36061;48.116;11.612;2023-04-01T04:12:25;7.50;99.90
50162;DHT22;36061;48.116;11.612;2023-04-01T04:14:53;7.50;99.90
50162;DHT22;36061;48.116;11.612;2023-04-01T04:17:20;7.40;99.90
50162;DHT22;36061;48.116;11.612;2023-04-01T04:19:49;7.40;99.90
50162;DHT22;36061;48.116;11.612;2023-04-01T04:22:16;7.50;99.90
50162;DHT22;36061;48.116;11.612;2023-04-01T04:24:44;7.50;99.90
50162;DHT22;36061;48.116;11.612;2023-04-01T04:27:12;7.40;99.90
50162;DHT22;36061;48.116;11.612;2023-04-01T04:29:52;7.40;99.90
50162;DHT22;36061;48.116;11.612;2023-04-01T04:32:20;7.40;99.90
50162;DHT22;36061;48.116;11.612;2023-04-01T04:34:48;7.40;99.90
50162;DHT22;36061;48.116;11.612;2023-04-01T04:37:16;7.50;99.90
50162;DHT22;36061;48.116;11.612;2023-04-01T04:39:43;7.50;99.90
50162;DHT22;36061;48.116;11.612;2023-04-01T04:42:10;7.40;99.90
50162;DHT22;36061;48.116;11.612;2023-04-01T04:44:38;7.50;99.90
50162;DHT22;36061;48.116;11.612;2023-04-01T04:47:05;7.50;99.90
50162;DHT22;36061;48.116;11.612;2023-04-01T04:49:33;7.50;99.90
50162;DHT22;36061;48.116;11.612;2023-04-01T04:52:06;7.50;99.90
50162;DHT22;36061;48.116;11.612;2023-04-01T04:54:33;7.50;99.90
50162;DHT22;36061;48.116;11.612;2023-04-01T04:57:02;7.60;99.90
50162;DHT22;36061;48.116;11.612;2023-04-01T04:59:35;7.50;99.90
50162;DHT22;36061;48.116;11.612;2023-04-01T05:02:10;7.50;99.90
50162;DHT22;36061;48.116;11.612;2023-04-01T05:04:37;7.50;99.90
50162;DHT22;36061;48.116;11.612;2023-04-01T05:07:10;7.60;99.90
50162;DHT22;36061;48.116;11.612;2023-04-01T05:09:37;7.60;99.90
50162;DHT22;36061;48.116;11.612;2023-04-01T05:12:05;7.60;99.90
50162;DHT22;36061;48.116;11.612;2023-04-01T05:14:55;7.60;99.90
50162;DHT22;36061;48.116;11.612;2023-04-01T05:17:23;7.60;99.90
50162;DHT22;36061;48.116;11.612;2023-04-01T05:19:50;7.70;99.90
50162;DHT22;36061;48.116;11.612;2023-04-01T05:22:18;7.70;99.90
50162;DHT22;36061;48.116;11.612;2023-04-01T05:24:46;7.80;99.90
50162;DHT22;36061;48.116;11.612;2023-04-01T05:27:14;7.80;99.90
50162;DHT22;36061;48.116;11.612;2023-04-01T05:29:42;7.80;99.90
50162;DHT22;36061;48.116;11.612;2023-04-01T05:32:25;7.90;99.90
50162;DHT22;36061;48.116;11.612;2023-04-01T05:34:53;7.90;99.90
50162;DHT22;36061;48.116;11.612;2023-04-01T05:37:21;7.90;99.90
50162;DHT22;36061;48.116;11.612;2023-04-01T05:39:49;8.00;99.90
50162;DHT22;36061;48.116;11.612;2023-04-01T05:42:17;8.00;99.90
50162;DHT22;36061;48.116;11.612;2023-04-01T05:44:44;8.00;99.90
50162;DHT22;36061;48.116;11.612;2023-04-01T05:47:37;8.10;99.90
50162;DHT22;36061;48.116;11.612;2023-04-01T05:50:05;8.10;99.90
50162;DHT22;36061;48.116;11.612;2023-04-01T05:52:34;8.10;99.90
50162;DHT22;36061;48.116;11.612;2023-04-01T05:55:01;8.20;99.90
50162;DHT22;36061;48.116;11.612;2023-04-01T05:57:29;8.20;99.90
50162;DHT22;36061;48.116;11.612;2023-04-01T05:59:56;8.30;99.90
50162;DHT22;36061;48.116;11.612;2023-04-01T06:02:23;8.30;99.90
50162;DHT22;36061;48.116;11.612;2023-04-01T06:04:54;8.40;99.90
50162;DHT22;36061;48.116;11.612;2023-04-01T06:07:28;8.50;99.90
50162;DHT22;36061;48.116;11.612;2023-04-01T06:09:57;8.70;99.90
50162;DHT22;36061;48.116;11.612;2023-04-01T06:12:38;8.90;99.90
50162;DHT22;36061;48.116;11.612;2023-04-01T06:15:20;9.30;99.90
50162;DHT22;36061;48.116;11.612;2023-04-01T06:20:45;9.80;99.90
50162;DHT22;36061;48.116;11.612;2023-04-01T06:23:27;9.90;99.90
50162;DHT22;36061;48.116;11.612;2023-04-01T06:26:18;9.90;99.90
50162;DHT22;36061;48.116;11.612;2023-04-01T06:29:14;9.90;99.90
50162;DHT22;36061;48.116;11.612;2023-04-01T06:31:58;10.00;99.90
50162;DHT22;36061;48.116;11.612;2023-04-01T06:34:38;10.00;99.90
50162;DHT22;36061;48.116;11.612;2023-04-01T06:37:23;10.10;99.90
50162;DHT22;36061;48.116;11.612;2023-04-01T06:40:05;10.20;99.90
50162;DHT22;36061;48.116;11.612;2023-04-01T06:42:57;10.20;99.90
50162;DHT22;36061;48.116;11.612;2023-04-01T06:45:52;10.40;99.90
50162;DHT22;36061;48.116;11.612;2023-04-01T06:49:21;10.30;99.90
50162;DHT22;36061;48.116;11.612;2023-04-01T06:52:26;10.10;99.90
50162;DHT22;36061;48.116;11.612;2023-04-01T06:55:35;9.90;99.90
50162;DHT22;36061;48.116;11.612;2023-04-01T06:58:42;9.70;99.90
50162;DHT22;36061;48.116;11.612;2023-04-01T07:01:15;9.70;99.90
50162;DHT22;36061;48.116;11.612;2023-04-01T07:03:47;9.70;99.90
50162;DHT22;36061;48.116;11.612;2023-04-01T07:06:23;9.70;99.90
50162;DHT22;36061;48.116;11.612;2023-04-01T07:08:56;9.70;99.90
50162;DHT22;36061;48.116;11.612;2023-04-01T07:11:31;9.70;99.90
50162;DHT22;36061;48.116;11.612;2023-04-01T07:14:41;9.80;99.90
50162;DHT22;36061;48.116;11.612;2023-04-01T07:17:14;9.80;99.90
50162;DHT22;36061;48.116;11.612;2023-04-01T07:19:45;9.70;99.90
50162;DHT22;36061;48.116;11.612;2023-04-01T07:22:21;9.70;99.90
50162;DHT22;36061;48.116;11.612;2023-04-01T07:25:11;9.70;99.90
50162;DHT22;36061;48.116;11.612;2023-04-01T07:27:45;9.70;99.90
50162;DHT22;36061;48.116;11.612;2023-04-01T07:30:18;9.60;99.90
50162;DHT22;36061;48.116;11.612;2023-04-01T07:32:48;9.50;99.90
50162;DHT22;36061;48.116;11.612;2023-04-01T07:35:25;9.60;99.90
50162;DHT22;36061;48.116;11.612;2023-04-01T07:38:09;9.60;99.90
50162;DHT22;36061;48.116;11.612;2023-04-01T07:40:47;9.70;99.90
50162;DHT22;36061;48.116;11.612;2023-04-01T07:43:43;9.80;99.90
50162;DHT22;36061;48.116;11.612;2023-04-01T07:46:52;9.90;99.90
50162;DHT22;36061;48.116;11.612;2023-04-01T07:49:28;10.00;99.90
50162;DHT22;36061;48.116;11.612;2023-04-01T07:52:01;10.20;99.90
50162;DHT22;36061;48.116;11.612;2023-04-01T07:54:40;10.30;99.90
50162;DHT22;36061;48.116;11.612;2023-04-01T07:57:17;10.50;99.90
50162;DHT22;36061;48.116;11.612;2023-04-01T07:59:58;10.60;99.90
50162;DHT22;36061;48.116;11.612;2023-04-01T08:02:55;10.60;99.90
50162;DHT22;36061;48.116;11.612;2023-04-01T08:05:28;10.70;99.90
50162;DHT22;36061;48.116;11.612;2023-04-01T08:08:11;10.70;99.90
50162;DHT22;36061;48.116;11.612;2023-04-01T08:11:25;10.60;99.90
50162;DHT22;36061;48.116;11.612;2023-04-01T08:14:21;10.50;99.90
50162;DHT22;36061;48.116;11.612;2023-04-01T08:17:13;10.40;99.90
50162;DHT22;36061;48.116;11.612;2023-04-01T08:20:07;10.40;99.90
50162;DHT22;36061;48.116;11.612;2023-04-01T08:22:40;10.50;99.90
50162;DHT22;36061;48.116;11.612;2023-04-01T08:25:19;10.60;99.90
50162;DHT22;36061;48.116;11.612;2023-04-01T08:27:50;10.70;99.90
50162;DHT22;36061;48.116;11.612;2023-04-01T08:30:20;10.70;99.90
50162;DHT22;36061;48.116;11.612;2023-04-01T08:32:52;10.80;99.90
50162;DHT22;36061;48.116;11.612;2023-04-01T08:35:27;10.70;99.90
50162;DHT22;36061;48.116;11.612;2023-04-01T08:38:01;10.70;99.90
50162;DHT22;36061;48.116;11.612;2023-04-01T08:40:55;10.80;99.90
50162;DHT22;36061;48.116;11.612;2023-04-01T08:46:19;10.90;99.90
50162;DHT22;36061;48.116;11.612;2023-04-01T08:49:01;10.90;99.90
50162;DHT22;36061;48.116;11.612;2023-04-01T08:54:55;10.90;99.90
50162;DHT22;36061;48.116;11.612;2023-04-01T08:57:53;10.90;99.90
50162;DHT22;36061;48.116;11.612;2023-04-01T09:00:47;11.00;99.90
50162;DHT22;36061;48.116;11.612;2023-04-01T09:03:48;11.00;99.90
50162;DHT22;36061;48.116;11.612;2023-04-01T09:12:31;11.30;99.90
50162;DHT22;36061;48.116;11.612;2023-04-01T09:15:23;11.40;99.90
50162;DHT22;36061;48.116;11.612;2023-04-01T09:18:16;11.50;99.90
50162;DHT22;36061;48.116;11.612;2023-04-01T09:21:15;11.40;99.90
50162;DHT22;36061;48.116;11.612;2023-04-01T09:27:03;11.70;99.90
50162;DHT22;36061;48.116;11.612;2023-04-01T09:35:39;12.00;99.90
50162;DHT22;36061;48.116;11.612;2023-04-01T09:38:20;11.90;99.90
50162;DHT22;36061;48.116;11.612;2023-04-01T09:40:54;11.80;99.90
50162;DHT22;36061;48.116;11.612;2023-04-01T09:43:44;11.80;99.90
50162;DHT22;36061;48.116;11.612;2023-04-01T09:46:24;11.70;99.90
50162;DHT22;36061;48.116;11.612;2023-04-01T09:52:15;11.50;99.90
50162;DHT22;36061;48.116;11.612;2023-04-01T09:55:04;11.50;99.90
50162;DHT22;36061;48.116;11.612;2023-04-01T10:01:31;11.80;99.90
50162;DHT22;36061;48.116;11.612;2023-04-01T10:04:27;12.00;99.90
50162;DHT22;36061;48.116;11.612;2023-04-01T10:07:29;12.10;99.90
50162;DHT22;36061;48.116;11.612;2023-04-01T10:13:34;12.10;99.90
50162;DHT22;36061;48.116;11.612;2023-04-01T10:19:20;12.00;99.90
50162;DHT22;36061;48.116;11.612;2023-04-01T10:22:22;12.00;99.90
50162;DHT22;36061;48.116;11.612;2023-04-01T10:25:05;12.00;99.90
50162;DHT22;36061;48.116;11.612;2023-04-01T10:27:50;12.00;99.90
50162;DHT22;36061;48.116;11.612;2023-04-01T10:34:16;11.90;99.90
50162;DHT22;36061;48.116;11.612;2023-04-01T10:36:52;12.00;99.90
50162;DHT22;36061;48.116;11.612;2023-04-01T10:46:21;12.20;99.90
50162;DHT22;36061;48.116;11.612;2023-04-01T10:55:37;12.10;99.90
50162;DHT22;36061;48.116;11.612;2023-04-01T11:15:09;11.30;99.90
50162;DHT22;36061;48.116;11.612;2023-04-01T11:21:11;11.40;99.90
50162;DHT22;36061;48.116;11.612;2023-04-01T11:24:09;11.30;99.90
50162;DHT22;36061;48.116;11.612;2023-04-01T11:26:58;11.20;99.90
50162;DHT22;36061;48.116;11.612;2023-04-01T11:29:59;11.00;99.90
50162;DHT22;36061;48.116;11.612;2023-04-01T11:32:42;11.10;99.90
50162;DHT22;36061;48.116;11.612;2023-04-01T11:35:38;11.00;99.90
50162;DHT22;36061;48.116;11.612;2023-04-01T11:38:33;11.00;99.90
50162;DHT22;36061;48.116;11.612;2023-04-01T11:41:28;11.10;99.90
50162;DHT22;36061;48.116;11.612;2023-04-01T11:44:25;11.10;99.90
50162;DHT22;36061;48.116;11.612;2023-04-01T11:47:19;10.90;99.90
50162;DHT22;36061;48.116;11.612;2023-04-01T11:50:15;10.90;99.90
50162;DHT22;36061;48.116;11.612;2023-04-01T11:55:54;10.70;99.90
50162;DHT22;36061;48.116;11.612;2023-04-01T11:58:36;10.50;99.90
50162;DHT22;36061;48.116;11.612;2023-04-01T12:01:20;10.40;99.90
50162;DHT22;36061;48.116;11.612;2023-04-01T12:04:22;10.20;99.90
50162;DHT22;36061;48.116;11.612;2023-04-01T12:06:59;10.00;99.90
50162;DHT22;36061;48.116;11.612;2023-04-01T12:09:37;10.00;99.90
50162;DHT22;36061;48.116;11.612;2023-04-01T12:12:14;10.00;99.90
50162;DHT22;36061;48.116;11.612;2023-04-01T12:14:48;9.90;99.90
50162;DHT22;36061;48.116;11.612;2023-04-01T12:17:29;9.70;99.90
50162;DHT22;36061;48.116;11.612;2023-04-01T12:20:09;9.40;99.90
50162;DHT22;36061;48.116;11.612;2023-04-01T12:22:53;9.30;99.90
50162;DHT22;36061;48.116;11.612;2023-04-01T12:25:34;9.30;99.90
50162;DHT22;36061;48.116;11.612;2023-04-01T12:28:14;9.40;99.90
50162;DHT22;36061;48.116;11.612;2023-04-01T12:30:51;9.40;99.90
50162;DHT22;36061;48.116;11.612;2023-04-01T12:36:38;9.30;99.90
50162;DHT22;36061;48.116;11.612;2023-04-01T12:39:29;9.30;99.90
50162;DHT22;36061;48.116;11.612;2023-04-01T12:42:07;9.30;99.90
50162;DHT22;36061;48.116;11.612;2023-04-01T12:44:57;9.30;99.90
50162;DHT22;36061;48.116;11.612;2023-04-01T12:47:50;9.20;99.90
50162;DHT22;36061;48.116;11.612;2023-04-01T12:50:42;9.20;99.90
50162;DHT22;36061;48.116;11.612;2023-04-01T12:53:23;9.30;99.90
50162;DHT22;36061;48.116;11.612;2023-04-01T12:55:56;9.30;99.90
50162;DHT22;36061;48.116;11.612;2023-04-01T12:58:56;9.20;99.90
50162;DHT22;36061;48.116;11.612;2023-04-01T13:01:35;9.30;99.90
50162;DHT22;36061;48.116;11.612;2023-04-01T13:04:37;9.30;99.90
50162;DHT22;36061;48.116;11.612;2023-04-01T13:07:30;9.20;99.90
50162;DHT22;36061;48.116;11.612;2023-04-01T13:10:07;9.20;99.90
50162;DHT22;36061;48.116;11.612;2023-04-01T13:15:43;9.10;99.90
50162;DHT22;36061;48.116;11.612;2023-04-01T13:18:21;9.10;99.90
50162;DHT22;36061;48.116;11.612;2023-04-01T13:20:59;9.10;99.90
50162;DHT22;36061;48.116;11.612;2023-04-01T13:23:37;9.00;99.90
50162;DHT22;36061;48.116;11.612;2023-04-01T13:26:13;9.10;99.90
50162;DHT22;36061;48.116;11.612;2023-04-01T13:28:47;9.10;99.90
50162;DHT22;36061;48.116;11.612;2023-04-01T13:31:31;9.10;99.90
50162;DHT22;36061;48.116;11.612;2023-04-01T13:34:13;9.10;99.90
50162;DHT22;36061;48.116;11.612;2023-04-01T13:36:54;9.00;99.90
50162;DHT22;36061;48.116;11.612;2023-04-01T13:39:44;9.00;99.90
50162;DHT22;36061;48.116;11.612;2023-04-01T13:42:21;9.10;99.90
50162;DHT22;36061;48.116;11.612;2023-04-01T13:44:55;9.10;99.90
50162;DHT22;36061;48.116;11.612;2023-04-01T13:48:09;9.00;99.90
50162;DHT22;36061;48.116;11.612;2023-04-01T13:56:58;8.90;99.90
50162;DHT22;36061;48.116;11.612;2023-04-01T14:02:50;9.00;99.90
50162;DHT22;36061;48.116;11.612;2023-04-01T14:05:36;9.00;99.90
50162;DHT22;36061;48.116;11.612;2023-04-01T14:08:15;9.10;99.90
50162;DHT22;36061;48.116;11.612;2023-04-01T14:10:47;9.10;99.90
50162;DHT22;36061;48.116;11.612;2023-04-01T14:13:26;9.20;99.90
50162;DHT22;36061;48.116;11.612;2023-04-01T14:16:07;9.20;99.90
50162;DHT22;36061;48.116;11.612;2023-04-01T14:18:57;9.30;99.90
50162;DHT22;36061;48.116;11.612;2023-04-01T14:21:37;9.30;99.90
50162;DHT22;36061;48.116;11.612;2023-04-01T14:24:22;9.40;99.90
50162;DHT22;36061;48.116;11.612;2023-04-01T14:27:21;9.20;99.90
50162;DHT22;36061;48.116;11.612;2023-04-01T14:30:19;9.00;99.90
50162;DHT22;36061;48.116;11.612;2023-04-01T14:32:56;9.10;99.90
50162;DHT22;36061;48.116;11.612;2023-04-01T14:35:33;9.10;99.90
50162;DHT22;36061;48.116;11.612;2023-04-01T14:38:18;9.20;99.90
50162;DHT22;36061;48.116;11.612;2023-04-01T14:41:02;9.20;99.90
50162;DHT22;36061;48.116;11.612;2023-04-01T14:43:50;9.20;99.90
50162;DHT22;36061;48.116;11.612;2023-04-01T14:46:49;9.30;99.90
50162;DHT22;36061;48.116;11.612;2023-04-01T14:49:23;9.30;99.90
50162;DHT22;36061;48.116;11.612;2023-04-01T14:51:52;9.40;99.90
50162;DHT22;36061;48.116;11.612;2023-04-01T14:54:30;9.40;99.90
50162;DHT22;36061;48.116;11.612;2023-04-01T14:57:05;9.40;99.90
50162;DHT22;36061;48.116;11.612;2023-04-01T14:59:40;9.30;99.90
50162;DHT22;36061;48.116;11.612;2023-04-01T15:02:22;9.30;99.90
50162;DHT22;36061;48.116;11.612;2023-04-01T15:04:57;9.20;99.90
50162;DHT22;36061;48.116;11.612;2023-04-01T15:07:50;9.30;99.90
50162;DHT22;36061;48.116;11.612;2023-04-01T15:10:43;9.20;99.90
50162;DHT22;36061;48.116;11.612;2023-04-01T15:13:15;9.20;99.90
50162;DHT22;36061;48.116;11.612;2023-04-01T15:15:56;9.20;99.90
50162;DHT22;36061;48.116;11.612;2023-04-01T15:18:38;9.20;99.90
50162;DHT22;36061;48.116;11.612;2023-04-01T15:21:20;9.20;99.90
50162;DHT22;36061;48.116;11.612;2023-04-01T15:24:06;9.20;99.90
50162;DHT22;36061;48.116;11.612;2023-04-01T15:32:50;9.20;99.90
50162;DHT22;36061;48.116;11.612;2023-04-01T15:35:30;9.20;99.90
50162;DHT22;36061;48.116;11.612;2023-04-01T15:38:06;9.30;99.90
50162;DHT22;36061;48.116;11.612;2023-04-01T15:40:42;9.40;99.90
50162;DHT22;36061;48.116;11.612;2023-04-01T15:43:18;9.50;99.90
50162;DHT22;36061;48.116;11.612;2023-04-01T15:45:54;9.50;99.90
50162;DHT22;36061;48.116;11.612;2023-04-01T15:48:44;9.60;99.90
50162;DHT22;36061;48.116;11.612;2023-04-01T15:51:24;9.60;99.90
50162;DHT22;36061;48.116;11.612;2023-04-01T15:54:12;9.60;99.90
50162;DHT22;36061;48.116;11.612;2023-04-01T15:56:53;9.60;99.90
50162;DHT22;36061;48.116;11.612;2023-04-01T16:02:44;9.60;99.90
50162;DHT22;36061;48.116;11.612;2023-04-01T16:05:27;9.50;99.90
50162;DHT22;36061;48.116;11.612;2023-04-01T16:08:13;9.60;99.90
50162;DHT22;36061;48.116;11.612;2023-04-01T16:11:04;9.70;99.90
50162;DHT22;36061;48.116;11.612;2023-04-01T16:13:41;9.60;99.90
50162;DHT22;36061;48.116;11.612;2023-04-01T16:16:21;9.70;99.90
50162;DHT22;36061;48.116;11.612;2023-04-01T16:19:02;9.70;99.90
50162;DHT22;36061;48.116;11.612;2023-04-01T16:21:37;9.80;99.90
50162;DHT22;36061;48.116;11.612;2023-04-01T16:24:17;9.80;99.90
50162;DHT22;36061;48.116;11.612;2023-04-01T16:26:50;9.90;99.90
50162;DHT22;36061;48.116;11.612;2023-04-01T16:29:26;9.80;99.90
50162;DHT22;36061;48.116;11.612;2023-04-01T16:31:59;9.80;99.90
50162;DHT22;36061;48.116;11.612;2023-04-01T16:34:31;9.80;99.90
50162;DHT22;36061;48.116;11.612;2023-04-01T16:37:07;9.80;99.90
50162;DHT22;36061;48.116;11.612;2023-04-01T16:39:46;9.80;99.90
50162;DHT22;36061;48.116;11.612;2023-04-01T16:42:38;9.70;99.90
50162;DHT22;36061;48.116;11.612;2023-04-01T16:45:21;9.70;99.90
50162;DHT22;36061;48.116;11.612;2023-04-01T16:47:55;9.70;99.90
50162;DHT22;36061;48.116;11.612;2023-04-01T16:50:24;9.70;99.90
50162;DHT22;36061;48.116;11.612;2023-04-01T16:52:59;9.60;99.90
50162;DHT22;36061;48.116;11.612;2023-04-01T16:55:43;9.60;99.90
50162;DHT22;36061;48.116;11.612;2023-04-01T16:58:20;9.70;99.90
50162;DHT22;36061;48.116;11.612;2023-04-01T17:00:53;9.70;99.90
50162;DHT22;36061;48.116;11.612;2023-04-01T17:03:27;9.60;99.90
50162;DHT22;36061;48.116;11.612;2023-04-01T17:06:08;9.50;99.90
50162;DHT22;36061;48.116;11.612;2023-04-01T17:11:30;9.60;99.90
50162;DHT22;36061;48.116;11.612;2023-04-01T17:14:05;9.50;99.90
50162;DHT22;36061;48.116;11.612;2023-04-01T17:17:01;9.50;99.90
50162;DHT22;36061;48.116;11.612;2023-04-01T17:19:46;9.60;99.90
50162;DHT22;36061;48.116;11.612;2023-04-01T17:22:25;9.50;99.90
50162;DHT22;36061;48.116;11.612;2023-04-01T17:25:07;9.50;99.90
50162;DHT22;36061;48.116;11.612;2023-04-01T17:27:47;9.50;99.90
50162;DHT22;36061;48.116;11.612;2023-04-01T17:30:25;9.50;99.90
50162;DHT22;36061;48.116;11.612;2023-04-01T17:33:28;9.50;99.90
50162;DHT22;36061;48.116;11.612;2023-04-01T17:35:59;9.50;99.90
50162;DHT22;36061;48.116;11.612;2023-04-01T17:38:50;9.50;99.90
50162;DHT22;36061;48.116;11.612;2023-04-01T17:41:31;9.40;99.90
50162;DHT22;36061;48.116;11.612;2023-04-01T17:44:15;9.30;99.90
50162;DHT22;36061;48.116;11.612;2023-04-01T17:46:56;9.30;99.90
50162;DHT22;36061;48.116;11.612;2023-04-01T17:49:32;9.30;99.90
50162;DHT22;36061;48.116;11.612;2023-04-01T17:52:04;9.40;99.90
50162;DHT22;36061;48.116;11.612;2023-04-01T17:54:38;9.40;99.90
50162;DHT22;36061;48.116;11.612;2023-04-01T17:57:29;9.30;99.90
50162;DHT22;36061;48.116;11.612;2023-04-01T18:00:02;9.30;99.90
50162;DHT22;36061;48.116;11.612;2023-04-01T18:02:42;9.30;99.90
50162;DHT22;36061;48.116;11.612;2023-04-01T18:05:37;9.30;99.90
50162;DHT22;36061;48.116;11.612;2023-04-01T18:08:12;9.30;99.90
50162;DHT22;36061;48.116;11.612;2023-04-01T18:10:51;9.30;99.90
50162;DHT22;36061;48.116;11.612;2023-04-01T18:13:43;9.30;99.90
50162;DHT22;36061;48.116;11.612;2023-04-01T18:16:29;9.40;99.90
50162;DHT22;36061;48.116;11.612;2023-04-01T18:19:08;9.40;99.90
50162;DHT22;36061;48.116;11.612;2023-04-01T18:21:43;9.40;99.90
50162;DHT22;36061;48.116;11.612;2023-04-01T18:24:18;9.40;99.90